Time;durP1;ratioP1;P1;durP2;ratioP2;P2;SDS_P1;SDS_P2;PMS_P1;PMS_P2;Temp;Humidity;BMP_temperature;BMP_pressure;BME280_temperature;BME280_humidity;BME280_pressure;Samples;Min_cycle;Max_cycle;Signal;HPM_P1;HPM_P2
2022/11/19 00:00:51;;;;;;;15.07;8.10;;;;;;;3.19;86.69;97252.81;4970308;28;20063;-81
2022/11/19 00:03:21;;;;;;;12.38;7.40;;;;;;;3.19;86.62;97255.41;4968213;28;20077;-81
2022/11/19 00:05:49;;;;;;;14.60;8.17;;;;;;;3.22;87.90;97257.63;4967889;28;20035;-80
2022/11/19 00:08:19;;;;;;;15.30;8.38;;;;;;;3.20;85.73;97257.00;4970227;28;20047;-81
2022/11/19 00:10:45;;;;;;;16.85;8.82;;;;;;;3.26;87.98;97258.09;4969848;28;20434;-81
2022/11/19 00:13:13;;;;;;;15.50;8.25;;;;;;;3.43;88.82;97265.56;4971396;28;20118;-81
2022/11/19 00:15:40;;;;;;;14.15;8.10;;;;;;;3.41;86.73;97254.56;4970288;28;20089;-81
2022/11/19 00:18:12;;;;;;;16.38;9.07;;;;;;;3.20;84.68;97251.81;4968838;28;20541;-81
2022/11/19 00:20:38;;;;;;;18.45;9.18;;;;;;;3.23;86.41;97256.66;4968881;28;20042;-81
2022/11/19 00:23:03;;;;;;;17.30;9.05;;;;;;;3.27;85.71;97262.31;4970476;28;20507;-81
2022/11/19 00:25:30;;;;;;;17.60;9.07;;;;;;;3.26;86.47;97260.69;4970068;28;20415;-81
2022/11/19 00:27:57;;;;;;;18.75;9.45;;;;;;;3.33;87.57;97267.59;4969990;28;20100;-81
2022/11/19 00:30:22;;;;;;;16.65;8.90;;;;;;;3.38;87.38;97267.06;4969781;28;20042;-81
2022/11/19 00:32:48;;;;;;;17.50;9.07;;;;;;;3.31;85.92;97269.56;4966862;28;20035;-81
2022/11/19 00:35:14;;;;;;;19.27;9.30;;;;;;;3.27;85.34;97273.47;4969852;28;20438;-81
2022/11/19 00:37:39;;;;;;;18.15;9.40;;;;;;;3.37;87.69;97276.63;4969869;28;20085;-81
2022/11/19 00:40:07;;;;;;;17.67;9.20;;;;;;;3.36;86.13;97276.78;4969596;28;20073;-81
2022/11/19 00:42:34;;;;;;;15.93;8.48;;;;;;;3.36;86.74;97282.81;4969817;28;20046;-81
2022/11/19 00:45:00;;;;;;;20.20;10.00;;;;;;;3.40;87.66;97271.09;4969625;28;20045;-81
2022/11/19 00:47:25;;;;;;;17.23;9.73;;;;;;;3.43;86.24;97283.72;4968664;28;20047;-81
2022/11/19 00:49:51;;;;;;;18.95;9.90;;;;;;;3.41;86.77;97277.88;4969090;28;20045;-81
2022/11/19 00:52:16;;;;;;;20.75;10.38;;;;;;;3.44;86.10;97274.16;4969251;28;20368;-81
2022/11/19 00:54:42;;;;;;;17.00;9.30;;;;;;;3.40;87.32;97275.47;4968840;28;20035;-81
2022/11/19 00:57:08;;;;;;;17.38;8.77;;;;;;;3.48;88.24;97273.63;4969929;28;20639;-81
2022/11/19 00:59:33;;;;;;;17.85;9.68;;;;;;;3.52;86.79;97270.69;4969750;28;20483;-80
2022/11/19 01:01:58;;;;;;;20.17;9.90;;;;;;;3.49;85.02;97277.03;4969265;28;20046;-80
2022/11/19 01:04:24;;;;;;;17.73;9.23;;;;;;;3.42;84.86;97287.31;4969676;28;20510;-80
2022/11/19 01:06:49;;;;;;;16.05;9.38;;;;;;;3.41;86.02;97284.84;4969388;28;20043;-80
2022/11/19 01:09:15;;;;;;;19.85;10.00;;;;;;;3.45;85.95;97299.91;4969901;28;20548;-80
2022/11/19 01:11:41;;;;;;;18.30;9.57;;;;;;;3.46;85.43;97303.28;4969603;28;20038;-80
2022/11/19 01:14:07;;;;;;;16.65;9.25;;;;;;;3.46;85.80;97311.06;4970049;28;20411;-80
2022/11/19 01:16:40;;;;;;;19.40;9.45;;;;;;;3.39;85.20;97310.97;4969096;28;20047;-80
2022/11/19 01:19:09;;;;;;;20.30;10.38;;;;;;;3.28;84.78;97315.75;4973307;28;20043;-79
2022/11/19 01:21:36;;;;;;;20.55;9.85;;;;;;;3.25;85.25;97323.88;4973277;28;20039;-80
2022/11/19 01:24:04;;;;;;;18.70;9.65;;;;;;;3.30;86.46;97322.38;4973351;28;20031;-80
2022/11/19 01:26:30;;;;;;;19.60;10.52;;;;;;;3.20;86.04;97308.84;4973414;28;20137;-80
2022/11/19 01:28:56;;;;;;;20.95;10.90;;;;;;;3.20;85.85;97316.59;4972893;28;20038;-79
2022/11/19 01:31:29;;;;;;;17.35;9.48;;;;;;;3.27;85.94;97316.72;4972552;28;20159;-80
2022/11/19 01:33:54;;;;;;;18.92;10.05;;;;;;;3.26;87.51;97317.72;4970046;28;20479;-79
2022/11/19 01:36:27;;;;;;;17.95;9.60;;;;;;;3.21;86.13;97326.00;4972911;28;20050;-79
2022/11/19 01:38:53;;;;;;;19.90;10.45;;;;;;;3.20;85.72;97314.00;4970268;28;20454;-79
2022/11/19 01:41:23;;;;;;;19.00;9.73;;;;;;;3.20;85.61;97329.56;4971390;28;20034;-79
2022/11/19 01:43:57;;;;;;;20.92;9.98;;;;;;;3.23;86.02;97324.81;4971486;28;20062;-79
2022/11/19 01:46:27;;;;;;;17.38;9.77;;;;;;;3.19;84.80;97333.94;4972166;28;20045;-80
2022/11/19 01:49:09;;;;;;;18.73;10.30;;;;;;;3.11;85.10;97335.75;4972826;28;20126;-79
2022/11/19 01:51:47;;;;;;;20.15;10.18;;;;;;;3.10;86.36;97323.78;4972331;28;20475;-80
2022/11/19 01:54:25;;;;;;;20.63;9.90;;;;;;;3.16;86.70;97331.69;4972515;28;20733;-80
2022/11/19 01:57:00;;;;;;;18.10;10.07;;;;;;;3.19;86.37;97325.38;4971425;28;20044;-80
2022/11/19 01:59:29;;;;;;;18.20;9.50;;;;;;;3.18;85.99;97334.13;4971949;28;20034;-80
2022/11/19 02:01:55;;;;;;;19.58;10.48;;;;;;;3.05;84.12;97334.66;4971806;28;20034;-80
2022/11/19 02:04:23;;;;;;;20.10;10.60;;;;;;;2.97;84.69;97333.91;4972483;28;20023;-80
2022/11/19 02:06:49;;;;;;;20.80;10.30;;;;;;;2.95;85.41;97332.28;4986002;28;20066;-80
2022/11/19 02:09:14;;;;;;;19.95;9.85;;;;;;;3.00;86.19;97328.38;4972269;28;20070;-81
2022/11/19 02:12:27;;;;;;;20.15;10.65;;;;;;;3.02;85.97;97326.44;4972263;28;20033;-80
2022/11/19 02:15:20;;;;;;;19.33;10.63;;;;;;;2.90;85.94;97334.59;4965513;28;20050;-80
2022/11/19 02:18:05;;;;;;;16.95;9.68;;;;;;;2.64;100.00;97342.63;4971782;28;20042;-81
2022/11/19 02:20:44;;;;;;;21.55;11.18;;;;;;;2.59;100.00;97346.69;4972019;28;20035;-81
2022/11/19 02:23:29;;;;;;;19.85;9.98;;;;;;;2.45;100.00;97340.41;4969792;28;20113;-81
2022/11/19 02:26:32;;;;;;;19.70;11.05;;;;;;;2.55;100.00;97335.06;4971625;28;20464;-80
2022/11/19 02:29:28;;;;;;;19.30;9.68;;;;;;;2.65;100.00;97340.84;4971854;28;20499;-81
2022/11/19 02:32:12;;;;;;;19.35;10.18;;;;;;;2.76;100.00;97332.72;4971196;28;20046;-81
2022/11/19 02:34:50;;;;;;;18.45;10.00;;;;;;;2.77;100.00;97328.34;4969542;28;20034;-80
2022/11/19 02:37:31;;;;;;;20.98;11.18;;;;;;;2.67;100.00;97338.88;4971590;28;20094;-80
2022/11/19 02:40:10;;;;;;;20.23;10.55;;;;;;;2.53;100.00;97349.97;4986589;28;20043;-80
2022/11/19 02:43:07;;;;;;;23.65;11.15;;;;;;;2.47;100.00;97348.03;4970763;28;20088;-80
2022/11/19 02:45:47;;;;;;;21.23;11.00;;;;;;;2.55;100.00;97345.41;4972146;28;20498;-80
2022/11/19 02:48:22;;;;;;;22.85;11.18;;;;;;;2.64;100.00;97349.59;4971359;28;20461;-80
2022/11/19 02:50:52;;;;;;;22.05;10.70;;;;;;;2.68;100.00;97346.47;4971274;28;20035;-80
2022/11/19 02:53:19;;;;;;;20.75;11.48;;;;;;;2.68;99.77;97345.69;4985952;28;20042;-80
2022/11/19 03:06:57;;;;;;;24.73;12.25;;;;;;;2.47;91.03;97358.38;4971678;28;20117;-80
2022/11/19 03:09:22;;;;;;;23.33;11.75;;;;;;;2.51;91.16;97359.66;4986468;28;20109;-80
2022/11/19 03:12:08;;;;;;;27.08;11.52;;;;;;;2.54;90.65;97354.16;4986318;28;20454;-80
2022/11/19 03:18:09;;;;;;;23.90;12.32;;;;;;;2.54;89.49;97354.16;4973576;28;20133;-80
2022/11/19 03:20:41;;;;;;;17.77;9.90;;;;;;;2.49;89.34;97362.41;4970852;28;20043;-80
2022/11/19 03:23:15;;;;;;;20.48;11.35;;;;;;;2.57;89.95;97358.97;4986106;28;20035;-80
2022/11/19 03:25:59;;;;;;;24.30;11.55;;;;;;;2.59;90.11;97382.94;4970012;28;20023;-80
2022/11/19 03:28:34;;;;;;;22.42;11.05;;;;;;;2.60;90.61;97376.78;4970755;28;20037;-80
2022/11/19 03:31:02;;;;;;;21.48;11.05;;;;;;;2.69;90.81;97383.53;4969688;28;20081;-80
2022/11/19 03:33:45;;;;;;;23.40;11.10;;;;;;;2.75;90.18;97382.88;4968096;28;20035;-80
2022/11/19 03:36:25;;;;;;;22.35;11.35;;;;;;;2.70;89.05;97380.00;4970259;28;20120;-81
2022/11/19 03:38:57;;;;;;;21.67;11.15;;;;;;;2.73;89.18;97390.00;4969906;28;20053;-80
2022/11/19 03:41:26;;;;;;;20.73;11.07;;;;;;;2.68;90.11;97387.91;4969949;28;20062;-80
2022/11/19 03:44:00;;;;;;;24.98;12.00;;;;;;;2.76;90.18;97394.88;4970729;28;20058;-80
2022/11/19 03:46:31;;;;;;;23.48;11.73;;;;;;;2.76;88.63;97394.88;4970694;28;20030;-80
2022/11/19 03:49:00;;;;;;;26.48;13.45;;;;;;;2.65;87.67;97400.41;4968968;28;20039;-80
2022/11/19 03:51:43;;;;;;;22.30;11.80;;;;;;;2.63;87.56;97399.75;4969950;28;20821;-80
2022/11/19 03:54:09;;;;;;;25.35;13.23;;;;;;;2.65;88.43;97410.75;4969260;28;20118;-80
2022/11/19 03:56:39;;;;;;;24.88;12.55;;;;;;;2.52;89.26;97395.75;4971218;28;20578;-80
2022/11/19 03:59:05;;;;;;;23.35;12.13;;;;;;;2.53;89.59;97402.53;4970177;28;20035;-80
2022/11/19 04:01:32;;;;;;;25.48;12.18;;;;;;;2.58;89.60;97394.25;4970262;28;20503;-80
2022/11/19 04:06:42;;;;;;;26.40;12.43;;;;;;;2.42;87.98;97398.50;4971655;28;20027;-80
2022/11/19 04:09:08;;;;;;;25.90;13.35;;;;;;;2.37;89.57;97395.59;4970966;28;20056;-80
2022/11/19 04:11:33;;;;;;;25.55;12.77;;;;;;;2.28;89.23;97401.78;4970423;28;20491;-80
2022/11/19 04:13:59;;;;;;;23.08;12.13;;;;;;;2.27;89.04;97400.13;4970271;28;20679;-79
2022/11/19 04:16:24;;;;;;;23.65;12.40;;;;;;;2.19;89.88;97405.34;4968918;28;20046;-80
2022/11/19 04:18:50;;;;;;;23.42;11.75;;;;;;;2.32;90.42;97407.41;4970640;28;20093;-80
2022/11/19 04:21:15;;;;;;;24.25;12.80;;;;;;;2.35;90.46;97407.91;4970670;28;20041;-80
2022/11/19 04:23:40;;;;;;;23.38;11.88;;;;;;;2.46;91.58;97411.09;4969669;28;20114;-80
2022/11/19 04:26:06;;;;;;;25.20;12.35;;;;;;;2.45;90.49;97415.47;4970543;28;20042;-80
2022/11/19 04:28:31;;;;;;;26.42;12.73;;;;;;;2.47;89.10;97415.34;4970598;28;20494;-80
2022/11/19 04:30:57;;;;;;;27.10;12.70;;;;;;;2.44;88.56;97405.28;4968637;28;20101;-80
2022/11/19 04:33:22;;;;;;;22.08;11.80;;;;;;;2.34;88.22;97408.88;4967640;28;20073;-80
2022/11/19 04:35:48;;;;;;;26.27;12.93;;;;;;;2.35;89.35;97410.50;4969656;28;20082;-80
2022/11/19 04:38:13;;;;;;;25.52;12.57;;;;;;;2.29;87.96;97413.75;4969486;28;20069;-80
2022/11/19 04:40:41;;;;;;;25.65;11.98;;;;;;;2.11;89.12;97415.69;4969700;28;20042;-79
2022/11/19 04:43:06;;;;;;;25.83;12.98;;;;;;;2.06;89.47;97407.63;4970005;28;20348;-80
2022/11/19 04:45:32;;;;;;;23.10;12.07;;;;;;;1.87;89.73;97414.72;4985046;28;20137;-80
2022/11/19 04:47:57;;;;;;;29.65;13.90;;;;;;;1.81;90.86;97420.53;4969391;28;20070;-80
2022/11/19 04:50:23;;;;;;;28.95;13.65;;;;;;;1.90;91.92;97417.94;4969292;28;20031;-80
2022/11/19 04:52:48;;;;;;;26.20;12.30;;;;;;;1.85;91.27;97426.19;4969033;28;20607;-80
2022/11/19 04:55:14;;;;;;;25.65;12.68;;;;;;;2.00;92.50;97419.41;4969814;28;20056;-80
2022/11/19 04:57:39;;;;;;;25.60;12.98;;;;;;;2.15;91.91;97419.56;4984467;28;20034;-80
2022/11/19 05:00:07;;;;;;;27.95;13.30;;;;;;;2.17;90.62;97419.41;4984769;28;20035;-80
2022/11/19 05:02:32;;;;;;;28.48;12.40;;;;;;;2.13;89.42;97414.56;4969916;28;20379;-79
2022/11/19 05:04:58;;;;;;;24.67;12.35;;;;;;;2.23;91.35;97413.59;4969298;28;20030;-79
2022/11/19 05:07:23;;;;;;;24.80;12.52;;;;;;;2.31;90.57;97409.19;4969892;28;20054;-79
2022/11/19 05:09:49;;;;;;;25.85;13.25;;;;;;;2.42;90.38;97414.03;4983182;28;20177;-80
2022/11/19 05:12:14;;;;;;;26.05;12.95;;;;;;;2.38;88.75;97409.34;4969184;28;20129;-79
2022/11/19 05:14:40;;;;;;;27.42;13.20;;;;;;;2.34;88.94;97408.88;4969442;28;20038;-80
2022/11/19 05:17:05;;;;;;;28.48;13.45;;;;;;;2.27;88.13;97413.06;4968820;28;20074;-79
2022/11/19 05:19:31;;;;;;;26.23;12.20;;;;;;;2.21;88.38;97411.16;4969496;28;20041;-80
2022/11/19 05:21:56;;;;;;;27.73;14.05;;;;;;;2.37;90.44;97408.53;4969279;28;20050;-79
2022/11/19 05:24:21;;;;;;;27.25;12.93;;;;;;;2.52;91.38;97405.28;4969349;28;20118;-79
2022/11/19 05:26:47;;;;;;;23.33;11.73;;;;;;;2.55;89.89;97403.16;4969588;28;20058;-79
2022/11/19 05:29:13;;;;;;;25.95;11.95;;;;;;;2.64;90.05;97409.16;4969065;28;20054;-80
2022/11/19 05:31:38;;;;;;;22.60;11.40;;;;;;;2.72;90.30;97409.13;4969147;28;20487;-79
2022/11/19 05:34:04;;;;;;;24.80;11.52;;;;;;;2.69;88.70;97405.06;4965280;28;20122;-79
2022/11/19 05:36:29;;;;;;;23.88;11.40;;;;;;;2.78;89.74;97416.22;4969497;28;20680;-79
2022/11/19 05:38:55;;;;;;;21.63;10.82;;;;;;;2.85;89.44;97409.38;4968752;28;20043;-79
2022/11/19 05:41:20;;;;;;;20.70;11.13;;;;;;;2.92;89.40;97414.69;4968177;28;20031;-79
2022/11/19 05:43:46;;;;;;;19.73;9.65;;;;;;;2.92;87.74;97418.09;4968971;28;20110;-79
2022/11/19 05:46:11;;;;;;;18.45;9.23;;;;;;;2.95;87.95;97422.16;4968695;28;20038;-80
2022/11/19 05:48:37;;;;;;;17.35;9.23;;;;;;;2.84;86.85;97418.13;4969762;28;20394;-80
2022/11/19 05:51:02;;;;;;;15.80;8.70;;;;;;;2.80;88.40;97422.03;4968758;28;20138;-79
2022/11/19 05:53:28;;;;;;;12.60;7.40;;;;;;;2.88;88.55;97413.44;4969191;28;20038;-80
2022/11/19 05:55:53;;;;;;;10.95;6.50;;;;;;;2.76;87.67;97410.41;4968867;28;20109;-80
2022/11/19 05:58:18;;;;;;;14.80;7.90;;;;;;;2.68;88.74;97406.03;4969019;28;20145;-79
2022/11/19 06:00:44;;;;;;;17.75;8.02;;;;;;;2.87;88.88;97414.41;4968169;28;20098;-80
2022/11/19 06:03:10;;;;;;;16.42;7.88;;;;;;;2.75;87.31;97416.53;4969266;28;20073;-80
2022/11/19 06:05:35;;;;;;;16.30;8.35;;;;;;;2.45;87.17;97419.84;4973423;28;20545;-79
2022/11/19 06:08:01;;;;;;;18.73;9.43;;;;;;;2.26;88.60;97431.38;4972688;28;20039;-80
2022/11/19 06:10:26;;;;;;;22.88;11.02;;;;;;;2.31;91.15;97429.09;4972010;28;20470;-80
2022/11/19 06:12:51;;;;;;;24.85;11.55;;;;;;;2.46;91.27;97434.41;4972311;28;20081;-79
2022/11/19 06:15:17;;;;;;;24.45;11.70;;;;;;;2.36;89.15;97439.78;4972418;28;20046;-80
2022/11/19 06:17:43;;;;;;;24.40;11.85;;;;;;;2.16;89.32;97428.97;4972050;28;20040;-80
2022/11/19 06:20:10;;;;;;;21.77;11.80;;;;;;;2.13;90.69;97429.28;4972159;28;20043;-80
2022/11/19 06:22:36;;;;;;;22.75;12.13;;;;;;;2.12;90.89;97436.22;4972284;28;20027;-79
2022/11/19 06:25:04;;;;;;;26.55;12.80;;;;;;;2.27;91.54;97433.78;4971773;28;20558;-80
2022/11/19 06:27:30;;;;;;;25.92;12.27;;;;;;;2.31;89.98;97442.03;4970992;28;20034;-80
2022/11/19 06:29:55;;;;;;;22.52;11.95;;;;;;;2.18;90.87;97452.06;4971283;28;20039;-80
2022/11/19 06:32:21;;;;;;;27.25;12.13;;;;;;;2.32;92.09;97454.00;4971103;28;20047;-80
2022/11/19 06:34:46;;;;;;;25.38;12.27;;;;;;;2.45;91.11;97454.31;4968029;28;20042;-80
2022/11/19 06:37:12;;;;;;;23.48;11.80;;;;;;;2.61;92.25;97459.47;4971310;28;20077;-80
2022/11/19 06:39:37;;;;;;;25.60;12.90;;;;;;;2.54;88.89;97470.66;4971855;28;20111;-80
2022/11/19 06:44:47;;;;;;;24.73;12.55;;;;;;;2.65;89.56;97478.06;4970149;28;20023;-80
2022/11/19 06:47:15;;;;;;;24.13;11.98;;;;;;;2.76;89.94;97480.31;4970713;28;20569;-80
2022/11/19 06:49:41;;;;;;;27.10;13.25;;;;;;;2.76;89.29;97485.50;4969792;28;20045;-80
2022/11/19 06:52:06;;;;;;;24.60;12.10;;;;;;;2.82;89.10;97492.63;4971421;28;20459;-80
2022/11/19 06:54:32;;;;;;;25.02;12.70;;;;;;;2.88;88.68;97491.94;4970788;28;20632;-80
2022/11/19 06:56:57;;;;;;;25.13;12.27;;;;;;;2.97;89.53;97494.50;4970789;28;20069;-80
2022/11/19 06:59:23;;;;;;;26.38;12.05;;;;;;;2.96;88.36;97488.53;4963190;28;20030;-80
2022/11/19 07:01:48;;;;;;;25.10;12.27;;;;;;;2.99;87.68;97498.53;4968606;28;20511;-80
2022/11/19 07:04:13;;;;;;;26.98;13.10;;;;;;;2.99;87.40;97500.31;4971063;28;20887;-81
2022/11/19 07:06:39;;;;;;;25.83;13.88;;;;;;;2.97;87.26;97499.69;4970525;28;20042;-80
2022/11/19 07:09:04;;;;;;;26.65;13.52;;;;;;;2.98;88.09;97493.53;4970571;28;20039;-80
2022/11/19 07:11:30;;;;;;;25.83;12.75;;;;;;;2.89;86.73;97501.34;4970464;28;20071;-80
2022/11/19 07:13:56;;;;;;;23.92;12.25;;;;;;;2.90;86.55;97513.31;4969811;28;20093;-80
2022/11/19 07:16:24;;;;;;;26.45;12.32;;;;;;;2.98;88.68;97503.91;4984154;28;20035;-79
2022/11/19 07:18:49;;;;;;;22.45;11.80;;;;;;;3.06;89.44;97503.88;4969778;28;20042;-80
2022/11/19 07:21:15;;;;;;;24.98;12.32;;;;;;;3.12;88.61;97503.19;4970450;28;20530;-80
2022/11/19 07:23:40;;;;;;;24.98;13.00;;;;;;;3.18;88.40;97499.97;4970694;28;20039;-79
2022/11/19 07:26:06;;;;;;;25.40;12.05;;;;;;;3.23;87.75;97510.63;4970267;28;20056;-79
2022/11/19 07:28:33;;;;;;;25.10;12.43;;;;;;;3.26;87.28;97523.25;4970227;28;20524;-79
2022/11/19 07:31:04;;;;;;;25.15;13.18;;;;;;;3.33;87.71;97520.78;4969469;28;20066;-79
2022/11/19 07:33:30;;;;;;;24.20;12.35;;;;;;;3.32;85.76;97520.00;4965407;28;20470;-79
2022/11/19 07:35:56;;;;;;;26.00;12.13;;;;;;;3.30;86.25;97524.53;4970473;28;20710;-80
2022/11/19 07:38:22;;;;;;;24.00;12.00;;;;;;;3.32;86.31;97520.00;4970172;28;20038;-79
2022/11/19 07:40:56;;;;;;;23.08;11.05;;;;;;;3.25;85.63;97521.63;4968978;28;20034;-80
2022/11/19 07:43:22;;;;;;;21.55;11.52;;;;;;;3.23;86.60;97520.97;4969217;28;20054;-80
2022/11/19 07:45:48;;;;;;;25.40;11.77;;;;;;;3.28;86.61;97529.06;4969907;28;20896;-79
2022/11/19 07:48:14;;;;;;;23.25;11.52;;;;;;;3.30;87.04;97521.94;4970080;28;20043;-80
2022/11/19 07:50:40;;;;;;;21.88;11.18;;;;;;;3.29;87.03;97522.91;4968314;28;20030;-79
2022/11/19 07:53:07;;;;;;;22.40;11.70;;;;;;;3.36;87.77;97521.28;4968400;28;20142;-80
2022/11/19 07:55:33;;;;;;;23.70;11.23;;;;;;;3.27;86.32;97517.09;4968120;28;20096;-80
2022/11/19 07:57:59;;;;;;;19.08;10.13;;;;;;;3.24;84.97;97525.22;4969162;28;20050;-79
2022/11/19 08:00:25;;;;;;;18.67;9.50;;;;;;;3.10;84.35;97525.88;4962270;28;20790;-79
2022/11/19 08:02:50;;;;;;;16.50;8.93;;;;;;;2.94;84.78;97522.38;4966731;28;20046;-79
2022/11/19 08:05:16;;;;;;;16.30;9.25;;;;;;;3.03;85.24;97522.34;4969567;28;20054;-79
2022/11/19 08:07:42;;;;;;;18.10;9.20;;;;;;;3.09;85.81;97535.44;4969384;28;20098;-79
2022/11/19 08:10:09;;;;;;;16.42;9.05;;;;;;;3.04;84.19;97537.72;4969245;28;20039;-80
2022/11/19 08:12:35;;;;;;;17.75;10.02;;;;;;;3.04;84.67;97532.53;4968969;28;20034;-80
2022/11/19 08:15:01;;;;;;;17.80;9.68;;;;;;;3.09;86.10;97529.47;4968424;28;20057;-80
2022/11/19 08:20:11;;;;;;;17.58;9.48;;;;;;;3.03;85.43;97530.91;4968838;28;20046;-80
2022/11/19 08:22:37;;;;;;;17.27;9.60;;;;;;;3.02;84.93;97542.25;4968485;28;20545;-80
2022/11/19 08:25:03;;;;;;;19.95;9.73;;;;;;;3.01;85.03;97539.84;4967899;28;20573;-80
2022/11/19 08:27:29;;;;;;;15.98;8.88;;;;;;;3.01;85.48;97547.63;4968696;28;20026;-80
2022/11/19 08:29:54;;;;;;;15.80;8.98;;;;;;;2.98;84.00;97550.53;4969567;28;20051;-79
2022/11/19 08:32:20;;;;;;;17.25;8.70;;;;;;;2.94;84.48;97543.09;4969174;28;20058;-80
2022/11/19 08:34:45;;;;;;;15.20;8.82;;;;;;;2.70;83.74;97545.72;4966289;28;20038;-80
2022/11/19 08:37:12;;;;;;;15.90;8.13;;;;;;;2.71;84.08;97546.53;4970377;28;20037;-79
2022/11/19 08:39:41;;;;;;;15.75;8.40;;;;;;;2.69;84.58;97538.91;4970121;28;20026;-82
2022/11/19 08:44:54;;;;;;;15.45;8.45;;;;;;;2.63;83.89;97544.72;4970260;28;20045;-82
2022/11/19 08:47:20;;;;;;;16.33;8.50;;;;;;;2.65;84.32;97542.81;4969940;28;20043;-82
2022/11/19 08:49:45;;;;;;;15.65;8.07;;;;;;;2.50;84.07;97536.66;4969369;28;20043;-83
2022/11/19 08:52:12;;;;;;;17.75;9.07;;;;;;;2.68;86.83;97552.81;4970219;28;20049;-83
2022/11/19 08:54:38;;;;;;;17.27;9.15;;;;;;;2.92;84.96;97563.16;4970647;28;20117;-82
2022/11/19 08:57:04;;;;;;;14.60;7.82;;;;;;;2.94;82.45;97563.00;4970185;28;20114;-83
2022/11/19 08:59:29;;;;;;;15.50;8.60;;;;;;;2.92;82.19;97555.38;4966636;28;20050;-82
2022/11/19 09:01:55;;;;;;;16.83;8.85;;;;;;;2.98;83.30;97556.50;4962488;28;20038;-82
2022/11/19 09:04:20;;;;;;;15.23;8.65;;;;;;;3.03;83.13;97562.00;4969790;28;20030;-83
2022/11/19 09:06:46;;;;;;;18.45;8.75;;;;;;;3.06;83.34;97561.69;4969778;28;20038;-82
2022/11/19 09:09:11;;;;;;;16.65;7.90;;;;;;;2.85;80.66;97564.78;4969834;28;20137;-83
2022/11/19 09:11:37;;;;;;;15.77;9.05;;;;;;;2.79;82.25;97565.44;4969842;28;20105;-82
2022/11/19 09:14:02;;;;;;;15.88;8.80;;;;;;;2.67;82.78;97577.09;4969558;28;20038;-82
2022/11/19 09:16:28;;;;;;;17.50;9.00;;;;;;;2.80;83.79;97571.44;4969177;28;20037;-82
2022/11/19 09:18:53;;;;;;;16.23;8.27;;;;;;;2.95;84.45;97573.22;4970083;28;20042;-82
2022/11/19 09:21:19;;;;;;;18.48;9.15;;;;;;;3.06;85.12;97577.25;4969722;28;20158;-82
2022/11/19 09:23:44;;;;;;;23.33;9.82;;;;;;;3.15;83.18;97575.44;4969961;28;20113;-81
2022/11/19 09:26:16;;;;;;;18.33;9.70;;;;;;;3.21;82.95;97574.78;4970085;28;20046;-82
2022/11/19 09:28:43;;;;;;;20.27;9.65;;;;;;;3.24;81.79;97571.88;4968958;28;20062;-82
2022/11/19 09:31:16;;;;;;;16.17;8.98;;;;;;;3.21;81.33;97580.75;4969346;28;20078;-82
2022/11/19 09:33:46;;;;;;;15.88;8.55;;;;;;;3.13;80.46;97587.75;4967242;28;20066;-82
2022/11/19 09:36:12;;;;;;;16.88;7.90;;;;;;;3.11;80.72;97576.72;4969850;28;20113;-82
2022/11/19 09:38:39;;;;;;;16.50;8.60;;;;;;;3.20;80.77;97583.53;4970964;28;20035;-82
2022/11/19 09:41:16;;;;;;;16.45;8.82;;;;;;;3.29;81.88;97587.69;4971710;28;20035;-82
2022/11/19 09:44:11;;;;;;;18.33;9.10;;;;;;;3.22;80.75;97586.75;4974003;28;20059;-82
2022/11/19 09:47:01;;;;;;;17.70;9.55;;;;;;;3.39;82.74;97593.50;4972999;28;20038;-82
2022/11/19 09:49:37;;;;;;;16.05;8.82;;;;;;;3.56;82.69;97596.06;4972562;28;20105;-82
2022/11/19 09:52:24;;;;;;;16.75;9.15;;;;;;;3.62;82.61;97598.00;4971739;28;20561;-82
2022/11/19 09:54:55;;;;;;;14.75;8.60;;;;;;;3.36;79.79;97595.63;4973216;28;20125;-81
2022/11/19 09:57:29;;;;;;;;;;;;;;;3.38;81.52;97602.28;4972407;28;20510;-82
2022/11/19 09:59:59;;;;;;;15.63;7.65;;;;;;;3.25;80.59;97604.56;4972848;28;19914;-82
2022/11/19 10:02:25;;;;;;;18.45;9.30;;;;;;;3.23;82.08;97603.91;4971897;28;20145;-82
2022/11/19 10:04:51;;;;;;;15.35;8.02;;;;;;;3.25;83.36;97591.63;4972779;28;20569;-82
2022/11/19 10:07:38;;;;;;;16.80;9.27;;;;;;;3.19;79.96;97581.91;4972443;28;20038;-82
2022/11/19 10:10:28;;;;;;;17.38;9.13;;;;;;;3.39;82.19;97593.50;4971376;28;20061;-82
2022/11/19 10:13:10;;;;;;;15.55;8.18;;;;;;;3.66;83.01;97594.09;4974791;28;20030;-82
2022/11/19 10:16:03;;;;;;;15.05;9.20;;;;;;;3.80;81.83;97590.78;4972085;28;20487;-82
2022/11/19 10:18:47;;;;;;;16.42;8.95;;;;;;;3.82;79.55;97598.38;4972598;28;20046;-81
2022/11/19 10:21:54;;;;;;;16.40;8.95;;;;;;;3.92;79.99;97599.00;4972234;28;20525;-82
2022/11/19 10:24:55;;;;;;;17.17;8.95;;;;;;;4.03;77.39;97586.47;4953266;28;20522;-82
2022/11/19 10:27:34;;;;;;;;;;;;;;;4.13;79.53;97591.41;4972687;28;20038;-82
2022/11/19 10:30:11;;;;;;;14.80;8.35;;;;;;;4.23;80.02;97581.63;4971906;28;19968;-82
2022/11/19 10:32:43;;;;;;;17.27;8.45;;;;;;;4.24;79.85;97582.44;4984415;28;20039;-82
2022/11/19 10:35:22;;;;;;;19.02;8.90;;;;;;;4.21;78.34;97593.19;4972006;28;20034;-82
2022/11/19 10:38:03;;;;;;;17.95;9.50;;;;;;;4.12;79.16;97600.19;4971956;28;20041;-82
2022/11/19 10:40:54;;;;;;;17.73;9.32;;;;;;;4.13;78.61;97591.41;4969966;28;20045;-82
2022/11/19 10:43:35;;;;;;;14.05;7.78;;;;;;;4.20;79.83;97589.78;4972024;28;20057;-83
2022/11/19 10:46:08;;;;;;;17.75;8.50;;;;;;;4.21;79.90;97582.78;4970915;28;20031;-83
2022/11/19 10:48:45;;;;;;;20.75;10.77;;;;;;;4.20;79.58;97586.38;4972040;28;20042;-82
2022/11/19 10:51:39;;;;;;;17.13;8.98;;;;;;;4.03;78.90;97573.47;4972181;28;20030;-82
2022/11/19 10:54:21;;;;;;;16.42;8.45;;;;;;;4.05;80.65;97562.13;4971052;28;20033;-82
2022/11/19 10:56:49;;;;;;;19.67;9.80;;;;;;;4.10;81.99;97571.00;4969432;28;20053;-83
2022/11/19 10:59:20;;;;;;;17.10;9.32;;;;;;;4.15;81.11;97558.34;4971358;28;20035;-82
2022/11/19 11:01:57;;;;;;;15.90;8.70;;;;;;;4.26;81.15;97555.34;4969341;28;20096;-83
2022/11/19 11:04:27;;;;;;;17.48;8.48;;;;;;;4.38;81.93;97566.13;4971139;28;20042;-83
2022/11/19 11:07:04;;;;;;;16.13;8.95;;;;;;;4.50;80.58;97561.34;4970306;28;20038;-83
2022/11/19 11:09:39;;;;;;;14.43;8.55;;;;;;;4.64;80.16;97557.16;4971164;28;20035;-82
2022/11/19 11:15:25;;;;;;;17.60;8.43;;;;;;;4.65;77.70;97553.59;4971603;28;20031;-82
2022/11/19 11:18:05;;;;;;;15.23;8.07;;;;;;;4.30;74.23;97560.97;4971827;28;20034;-82
2022/11/19 11:20:32;;;;;;;16.58;8.57;;;;;;;4.15;77.23;97555.75;4970735;28;20045;-82
2022/11/19 11:23:19;;;;;;;16.55;8.52;;;;;;;4.20;80.07;97550.03;4971361;28;20415;-82
2022/11/19 11:26:10;;;;;;;14.15;8.43;;;;;;;4.07;79.15;97549.78;4971432;28;20080;-82
2022/11/19 11:28:52;;;;;;;;;;;;;;;4.04;79.00;97550.94;4972123;28;20035;-82
2022/11/19 11:31:32;;;;;;;13.80;8.13;;;;;;;3.98;80.17;97552.44;4971225;28;20421;-82
2022/11/19 11:33:58;;;;;;;18.50;7.90;;;;;;;3.97;80.07;97556.00;4983174;28;20538;-82
2022/11/19 11:36:28;;;;;;;16.25;8.50;;;;;;;3.80;79.87;97554.47;4971678;28;20034;-82
2022/11/19 11:38:57;;;;;;;14.80;7.78;;;;;;;3.67;79.90;97559.41;4971196;28;20038;-82
2022/11/19 11:41:36;;;;;;;15.82;8.30;;;;;;;3.39;78.54;97562.41;4970897;28;20340;-82
2022/11/19 11:44:13;;;;;;;15.02;8.85;;;;;;;3.44;82.35;97569.69;4969721;28;20031;-82
2022/11/19 11:46:47;;;;;;;14.57;8.10;;;;;;;3.52;84.01;97561.88;4969623;28;20096;-82
2022/11/19 11:49:42;;;;;;;12.82;7.43;;;;;;;3.57;82.39;97554.41;4970446;28;20574;-82
2022/11/19 11:52:10;;;;;;;14.70;8.20;;;;;;;3.59;82.30;97552.44;4970121;28;20110;-82
2022/11/19 11:54:52;;;;;;;14.93;7.57;;;;;;;3.59;81.74;97542.06;4969306;28;20093;-82
2022/11/19 11:57:27;;;;;;;14.80;8.23;;;;;;;3.56;80.29;97554.59;4970581;28;20050;-82
2022/11/19 11:59:53;;;;;;;14.88;8.48;;;;;;;3.60;81.84;97559.28;4970671;28;20383;-82
2022/11/19 12:02:34;;;;;;;14.38;7.75;;;;;;;3.56;82.32;97557.16;4970279;28;20445;-82
2022/11/19 12:05:04;;;;;;;;;;;;;;;3.61;83.18;97560.06;4970979;28;20038;-82
2022/11/19 12:07:54;;;;;;;14.43;7.55;;;;;;;3.47;80.92;97549.41;4970380;28;19918;-82
2022/11/19 12:10:37;;;;;;;14.88;7.78;;;;;;;3.38;82.10;97549.63;4970419;28;20127;-82
2022/11/19 12:13:46;;;;;;;12.90;7.65;;;;;;;3.44;83.32;97541.19;4970396;28;20098;-82